Time;durP1;ratioP1;P1;durP2;ratioP2;P2;SDS_P1;SDS_P2;PMS_P1;PMS_P2;Temp;Humidity;BMP_temperature;BMP_pressure;BME280_temperature;BME280_humidity;BME280_pressure;Samples;Min_cycle;Max_cycle;Signal;HPM_P1;HPM_P2
2022/11/05 00:10:19;;;;;;;9.53;6.10;;;9.10;99.90;;;;;;5068457;28;20815;-67
2022/11/05 00:18:16;;;;;;;10.57;6.27;;;9.10;99.90;;;;;;5088360;28;20446;-67
2022/11/05 00:20:42;;;;;;;11.53;6.20;;;9.10;99.90;;;;;;5097594;28;20454;-67
2022/11/05 00:25:55;;;;;;;24.87;6.10;;;9.10;99.90;;;;;;5090111;28;20433;-67
2022/11/05 00:28:22;;;;;;;10.10;6.00;;;9.10;99.90;;;;;;5090551;28;20452;-67
2022/11/05 00:30:50;;;;;;;10.87;6.60;;;9.10;99.90;;;;;;5089320;28;20447;-67
2022/11/05 00:33:16;;;;;;;11.20;6.70;;;9.10;99.90;;;;;;5090377;28;20491;-67
2022/11/05 00:35:43;;;;;;;10.80;6.37;;;9.10;99.90;;;;;;5090210;28;20543;-67
2022/11/05 00:38:10;;;;;;;13.07;7.10;;;9.10;99.90;;;;;;5090947;28;20458;-68
2022/11/05 00:40:37;;;;;;;13.40;6.77;;;9.10;99.90;;;;;;5089638;28;20451;-67
2022/11/05 00:45:50;;;;;;;10.30;6.93;;;9.10;99.90;;;;;;5090466;28;20434;-67
2022/11/05 00:51:01;;;;;;;10.63;7.43;;;9.10;99.90;;;;;;5090418;28;20443;-67
2022/11/05 00:53:27;;;;;;;13.73;7.77;;;9.10;99.90;;;;;;5090354;28;20472;-67
2022/11/05 00:55:54;;;;;;;12.20;8.40;;;9.10;99.90;;;;;;5090304;28;20459;-68
2022/11/05 00:58:22;;;;;;;13.87;8.80;;;9.00;99.90;;;;;;5091110;28;20462;-67
2022/11/05 01:00:52;;;;;;;16.00;9.13;;;9.10;99.90;;;;;;5093621;28;20451;-67
2022/11/05 01:03:22;;;;;;;14.50;8.13;;;9.10;99.90;;;;;;5094086;28;20463;-68
2022/11/05 01:05:50;;;;;;;16.77;9.50;;;9.10;99.90;;;;;;5093900;28;20444;-67
2022/11/05 01:08:19;;;;;;;11.77;8.70;;;9.10;99.90;;;;;;5096556;28;20501;-67
2022/11/05 01:10:49;;;;;;;21.40;10.33;;;9.10;99.90;;;;;;5093548;28;20444;-67
2022/11/05 01:13:18;;;;;;;16.80;10.53;;;9.10;99.90;;;;;;5093955;28;20470;-67
2022/11/05 01:15:45;;;;;;;19.60;11.13;;;9.00;99.90;;;;;;5094103;28;20443;-67
2022/11/05 01:18:14;;;;;;;21.60;12.17;;;9.10;99.90;;;;;;5094660;28;20443;-67
2022/11/05 01:20:40;;;;;;;18.10;11.23;;;9.00;99.90;;;;;;5093446;28;20516;-67
2022/11/05 01:23:07;;;;;;;24.83;13.60;;;9.00;99.90;;;;;;5101532;28;20827;-67
2022/11/05 01:25:34;;;;;;;23.27;12.30;;;9.00;99.90;;;;;;5095355;28;20451;-67
2022/11/05 01:28:01;;;;;;;22.90;11.60;;;9.00;99.90;;;;;;5094146;28;20454;-67
2022/11/05 01:30:28;;;;;;;22.33;12.90;;;9.00;99.90;;;;;;5092959;28;20451;-67
2022/11/05 01:32:55;;;;;;;24.80;12.73;;;9.00;99.90;;;;;;5093715;28;20459;-67
2022/11/05 01:35:23;;;;;;;23.27;13.07;;;9.00;99.90;;;;;;5094536;28;20455;-67
2022/11/05 01:37:49;;;;;;;21.63;12.47;;;9.00;99.90;;;;;;5092947;28;20450;-67
2022/11/05 01:40:19;;;;;;;22.37;13.50;;;9.00;99.90;;;;;;5093707;28;20480;-67
2022/11/05 01:42:46;;;;;;;26.10;13.40;;;9.00;99.90;;;;;;5092934;28;20532;-67
2022/11/05 01:45:16;;;;;;;23.90;13.60;;;9.00;99.90;;;;;;5093431;28;20451;-68
2022/11/05 01:47:56;;;;;;;36.77;14.87;;;9.00;99.90;;;;;;5089805;28;20497;-67
2022/11/05 01:50:35;;;;;;;22.23;12.50;;;9.00;99.90;;;;;;5093122;28;20542;-67
2022/11/05 01:53:08;;;;;;;26.77;13.47;;;9.00;99.90;;;;;;5086624;28;20475;-67
2022/11/05 01:55:40;;;;;;;30.63;12.43;;;9.00;99.90;;;;;;5092845;28;20456;-67
2022/11/05 01:58:10;;;;;;;25.90;13.17;;;8.90;99.90;;;;;;5087751;28;20457;-67
2022/11/05 02:00:39;;;;;;;22.77;13.97;;;9.00;99.90;;;;;;5092247;28;20452;-67
2022/11/05 02:03:06;;;;;;;25.93;14.77;;;8.90;99.90;;;;;;5092857;28;20483;-67
2022/11/05 02:05:35;;;;;;;25.87;13.10;;;8.90;99.90;;;;;;5093050;28;20451;-67
2022/11/05 02:08:02;;;;;;;25.57;13.90;;;8.90;99.90;;;;;;5093679;28;20455;-68
2022/11/05 02:10:29;;;;;;;27.00;14.13;;;8.90;99.90;;;;;;5092419;28;20454;-67
2022/11/05 02:12:56;;;;;;;28.17;15.57;;;8.90;99.90;;;;;;5091651;28;20486;-67
2022/11/05 02:15:36;;;;;;;22.10;13.90;;;8.90;99.90;;;;;;5103793;28;20456;-67
2022/11/05 02:18:17;;;;;;;32.03;14.47;;;8.90;99.90;;;;;;5092264;28;20455;-67
2022/11/05 02:20:53;;;;;;;31.33;15.07;;;8.90;99.90;;;;;;5092071;28;20452;-67
2022/11/05 02:23:45;;;;;;;27.60;15.00;;;8.90;99.90;;;;;;5094540;28;20519;-68
2022/11/05 02:26:35;;;;;;;24.90;14.00;;;8.80;99.90;;;;;;5087404;28;20451;-67
2022/11/05 02:29:27;;;;;;;25.53;14.70;;;8.80;99.90;;;;;;5092432;28;20454;-67
2022/11/05 02:32:03;;;;;;;26.50;15.53;;;8.90;99.90;;;;;;5092055;28;20464;-67
2022/11/05 02:34:39;;;;;;;30.53;14.87;;;8.80;99.90;;;;;;5092489;28;20975;-67
2022/11/05 02:37:13;;;;;;;27.60;14.77;;;8.80;99.90;;;;;;5085941;28;20447;-68
2022/11/05 02:39:47;;;;;;;32.90;15.20;;;8.80;99.90;;;;;;5092005;28;20451;-67
2022/11/05 02:42:24;;;;;;;28.00;15.57;;;8.80;99.90;;;;;;5089933;28;20556;-67
2022/11/05 02:44:57;;;;;;;26.83;16.50;;;8.80;99.90;;;;;;5092043;28;20489;-68
2022/11/05 02:47:36;;;;;;;33.53;15.77;;;8.80;99.90;;;;;;5092202;28;20489;-68
2022/11/05 02:50:10;;;;;;;27.10;14.80;;;8.80;99.90;;;;;;5091525;28;20444;-68
2022/11/05 02:52:42;;;;;;;29.17;13.90;;;8.80;99.90;;;;;;5093681;28;20993;-68
2022/11/05 02:55:16;;;;;;;22.87;13.90;;;8.80;99.90;;;;;;5086026;28;20823;-67
2022/11/05 02:57:46;;;;;;;25.07;13.70;;;8.80;99.90;;;;;;5100323;28;20454;-67
2022/11/05 03:00:49;;;;;;;26.13;14.27;;;8.80;99.90;;;;;;5091605;28;20459;-67
2022/11/05 03:03:33;;;;;;;30.57;15.83;;;8.70;99.90;;;;;;5086315;28;20536;-68
2022/11/05 03:06:22;;;;;;;31.77;15.77;;;8.70;99.90;;;;;;5091266;28;20448;-67
2022/11/05 03:09:06;;;;;;;29.20;16.03;;;8.70;99.90;;;;;;5090512;28;20455;-68
2022/11/05 03:11:41;;;;;;;26.97;15.60;;;8.70;99.90;;;;;;5091277;28;20455;-68
2022/11/05 03:14:18;;;;;;;32.13;16.03;;;8.70;99.90;;;;;;5085387;28;20447;-68
2022/11/05 03:16:52;;;;;;;31.63;16.83;;;8.70;99.90;;;;;;5090775;28;20870;-67
2022/11/05 03:19:35;;;;;;;29.07;16.30;;;8.70;99.90;;;;;;5090750;28;20456;-67
2022/11/05 03:22:07;;;;;;;36.20;16.93;;;8.70;99.90;;;;;;5089597;28;21643;-68
2022/11/05 03:24:38;;;;;;;33.50;18.60;;;8.70;99.90;;;;;;5091398;28;20451;-68
2022/11/05 03:27:09;;;;;;;39.57;19.70;;;8.60;99.90;;;;;;5091483;28;20452;-68
2022/11/05 03:29:39;;;;;;;29.77;18.70;;;8.60;99.90;;;;;;5091079;28;20451;-67
2022/11/05 03:32:07;;;;;;;41.27;19.60;;;8.60;99.90;;;;;;5091022;28;20463;-67
2022/11/05 03:34:42;;;;;;;36.80;18.03;;;8.60;99.90;;;;;;5090822;28;20857;-67
2022/11/05 03:37:10;;;;;;;38.13;17.80;;;8.60;99.90;;;;;;5091273;28;20459;-68
2022/11/05 03:39:41;;;;;;;34.63;18.47;;;8.60;99.90;;;;;;5090892;28;20457;-68
2022/11/05 03:42:15;;;;;;;43.53;17.60;;;8.60;99.90;;;;;;5084465;28;20508;-68
2022/11/05 03:44:45;;;;;;;31.13;17.70;;;8.60;99.90;;;;;;5092553;28;20451;-67
2022/11/05 03:47:16;;;;;;;35.13;18.87;;;8.50;99.90;;;;;;5090032;28;20456;-68
2022/11/05 03:49:53;;;;;;;33.27;17.47;;;8.50;99.90;;;;;;5090946;28;20459;-68
2022/11/05 03:52:25;;;;;;;39.57;18.43;;;8.50;99.90;;;;;;5085782;28;20470;-68
2022/11/05 03:54:52;;;;;;;32.57;16.70;;;8.40;99.90;;;;;;5090819;28;20517;-68
2022/11/05 03:57:22;;;;;;;32.30;17.17;;;8.40;99.90;;;;;;5090820;28;20455;-68
2022/11/05 03:59:50;;;;;;;36.10;17.53;;;8.40;99.90;;;;;;5091002;28;20470;-68
2022/11/05 04:02:19;;;;;;;34.97;17.93;;;8.30;99.90;;;;;;5090219;28;20495;-68
2022/11/05 04:04:47;;;;;;;31.80;17.33;;;8.30;99.90;;;;;;5090425;28;20454;-68
2022/11/05 04:15:28;;;;;;;37.07;18.07;;;8.10;99.90;;;;;;5092434;28;20438;-68
2022/11/05 04:17:57;;;;;;;32.57;18.13;;;8.10;99.90;;;;;;5098714;28;20463;-68
2022/11/05 04:25:54;;;;;;;34.03;18.30;;;8.10;99.90;;;;;;5090092;28;20537;-68
2022/11/05 04:30:17;;;;;;;32.17;17.10;;;8.00;99.90;;;;;;5091038;28;20448;-68
2022/11/05 04:31:06;;;;;;;36.43;18.00;;;8.00;99.90;;;;;;5090173;28;20454;-68
2022/11/05 04:33:33;;;;;;;35.27;17.80;;;7.90;99.90;;;;;;5093120;28;20919;-68
2022/11/05 04:36:01;;;;;;;33.87;16.90;;;7.90;99.90;;;;;;5094921;28;20197;-68
2022/11/05 04:38:28;;;;;;;31.13;16.63;;;7.80;99.90;;;;;;5096372;28;20457;-68
2022/11/05 04:41:13;;;;;;;31.77;16.13;;;7.80;99.90;;;;;;5094237;28;20462;-68
2022/11/05 04:43:39;;;;;;;31.53;16.57;;;7.80;99.90;;;;;;5094246;28;21012;-68
2022/11/05 04:46:06;;;;;;;32.17;17.83;;;7.80;99.90;;;;;;5094050;28;20853;-68
2022/11/05 04:48:33;;;;;;;27.50;15.60;;;7.80;99.90;;;;;;5094288;28;20447;-68
2022/11/05 04:51:01;;;;;;;31.03;15.63;;;7.80;99.90;;;;;;5094227;28;20507;-68
2022/11/05 04:53:28;;;;;;;30.57;15.50;;;7.80;99.90;;;;;;5094519;28;20517;-68
2022/11/05 04:55:55;;;;;;;29.20;14.87;;;7.80;99.90;;;;;;5093855;28;20509;-68
2022/11/05 04:58:21;;;;;;;31.43;16.00;;;7.90;99.90;;;;;;5094110;28;20849;-68
2022/11/05 05:00:49;;;;;;;30.07;14.67;;;7.90;99.90;;;;;;5091820;28;20842;-68
2022/11/05 05:03:16;;;;;;;27.67;14.70;;;7.90;99.90;;;;;;5093420;28;20495;-69
2022/11/05 05:05:43;;;;;;;30.97;15.80;;;7.90;99.90;;;;;;5093400;28;20443;-68
2022/11/05 05:08:11;;;;;;;25.60;14.83;;;7.90;99.90;;;;;;5101375;28;20478;-68
2022/11/05 05:10:38;;;;;;;32.63;16.47;;;8.00;99.90;;;;;;5093394;28;20482;-68
2022/11/05 05:13:05;;;;;;;30.73;15.77;;;8.00;99.90;;;;;;5093484;28;21024;-68
2022/11/05 05:15:31;;;;;;;31.97;16.73;;;8.00;99.90;;;;;;5093795;28;20978;-68
2022/11/05 05:17:58;;;;;;;33.13;17.07;;;8.10;99.90;;;;;;5093795;28;20455;-68
2022/11/05 05:23:11;;;;;;;42.57;18.27;;;8.10;99.90;;;;;;5092961;28;20613;-68
2022/11/05 05:25:37;;;;;;;35.77;16.23;;;8.10;99.90;;;;;;5093937;28;20444;-68
2022/11/05 05:28:04;;;;;;;32.13;17.10;;;8.10;99.90;;;;;;5093314;28;20451;-68
2022/11/05 05:30:31;;;;;;;30.57;16.23;;;8.20;99.90;;;;;;5099794;28;20458;-68
2022/11/05 05:33:01;;;;;;;35.63;18.03;;;8.20;99.90;;;;;;5092891;28;20482;-68
2022/11/05 05:35:28;;;;;;;36.10;16.20;;;8.20;99.90;;;;;;5095964;28;20500;-68
2022/11/05 05:37:55;;;;;;;34.57;15.23;;;8.20;99.90;;;;;;5092880;28;20829;-68
2022/11/05 05:40:23;;;;;;;28.23;15.37;;;8.20;99.90;;;;;;5093676;28;20446;-68
2022/11/05 05:42:53;;;;;;;39.57;17.80;;;8.20;99.90;;;;;;5092516;28;20487;-68
2022/11/05 05:45:20;;;;;;;27.63;14.80;;;8.20;99.90;;;;;;5086655;28;20970;-68
2022/11/05 05:47:47;;;;;;;29.60;15.20;;;8.20;99.90;;;;;;5092428;28;20477;-68
2022/11/05 05:50:13;;;;;;;29.60;15.17;;;8.20;99.90;;;;;;5092665;28;20862;-68
2022/11/05 05:52:40;;;;;;;27.13;13.23;;;8.20;99.90;;;;;;5093043;28;20464;-68
2022/11/05 05:55:11;;;;;;;19.80;11.07;;;8.20;99.90;;;;;;5092817;28;20483;-69
2022/11/05 05:57:39;;;;;;;25.93;11.60;;;8.20;99.90;;;;;;5100200;28;20451;-68
2022/11/05 06:00:07;;;;;;;21.40;11.57;;;8.20;99.90;;;;;;5092186;28;20868;-68
2022/11/05 06:02:34;;;;;;;20.47;9.30;;;8.20;99.90;;;;;;5090055;28;20471;-68
2022/11/05 06:05:00;;;;;;;20.27;10.60;;;8.20;99.90;;;;;;5092657;28;20451;-68
2022/11/05 06:07:27;;;;;;;21.47;9.70;;;8.20;99.90;;;;;;5093265;28;20477;-69
2022/11/05 06:09:54;;;;;;;17.43;8.43;;;8.30;99.90;;;;;;5092237;28;20444;-68
2022/11/05 06:12:20;;;;;;;17.63;10.47;;;8.20;99.90;;;;;;5092486;28;20475;-68
2022/11/05 06:14:48;;;;;;;24.90;10.53;;;8.20;99.90;;;;;;5092604;28;20866;-69
2022/11/05 06:17:15;;;;;;;22.30;10.47;;;8.20;99.90;;;;;;5096529;28;20447;-69
2022/11/05 06:19:42;;;;;;;34.43;13.07;;;8.30;99.90;;;;;;5093576;28;20451;-68
2022/11/05 06:22:08;;;;;;;19.63;11.10;;;8.30;99.90;;;;;;5091803;28;20476;-70
2022/11/05 06:24:35;;;;;;;23.77;10.83;;;8.30;99.90;;;;;;5092901;28;20483;-68
2022/11/05 06:27:02;;;;;;;21.07;11.23;;;8.30;99.90;;;;;;5092667;28;20460;-69
2022/11/05 06:29:28;;;;;;;20.60;10.83;;;8.20;99.90;;;;;;5090423;28;20451;-68
2022/11/05 06:31:56;;;;;;;19.30;10.27;;;8.20;99.90;;;;;;5090609;28;20479;-69
2022/11/05 06:34:23;;;;;;;22.87;11.90;;;8.20;99.90;;;;;;5090352;28;20447;-69
2022/11/05 06:36:50;;;;;;;23.67;11.60;;;8.20;99.90;;;;;;5091454;28;20463;-68
2022/11/05 06:39:16;;;;;;;26.17;11.17;;;8.30;99.90;;;;;;5091084;28;20845;-69
2022/11/05 06:41:44;;;;;;;20.07;10.90;;;8.20;99.90;;;;;;5090903;28;21143;-69
2022/11/05 06:44:10;;;;;;;25.47;10.37;;;8.30;99.90;;;;;;5091397;28;20574;-67
2022/11/05 06:46:37;;;;;;;21.47;10.93;;;8.30;99.90;;;;;;5091751;28;20452;-67
2022/11/05 06:49:05;;;;;;;19.33;10.10;;;8.30;99.90;;;;;;5092862;28;20455;-67
2022/11/05 06:51:32;;;;;;;16.87;10.00;;;8.30;99.90;;;;;;5091654;28;20462;-67
2022/11/05 06:53:58;;;;;;;19.00;9.77;;;8.30;99.90;;;;;;5092485;28;20435;-66
2022/11/05 06:56:25;;;;;;;19.07;9.50;;;8.30;99.90;;;;;;5094528;28;20458;-66
2022/11/05 06:58:52;;;;;;;24.20;9.37;;;8.30;99.90;;;;;;5108281;28;20950;-66
2022/11/05 07:01:18;;;;;;;22.17;9.87;;;8.30;99.90;;;;;;5105133;28;21012;-66
2022/11/05 07:03:47;;;;;;;24.97;10.70;;;8.40;99.90;;;;;;5092211;28;21043;-66
2022/11/05 07:06:15;;;;;;;26.43;11.17;;;8.40;99.90;;;;;;5092120;28;20459;-66
2022/11/05 07:08:42;;;;;;;24.80;11.20;;;8.40;99.90;;;;;;5106326;28;20457;-66
2022/11/05 07:11:09;;;;;;;22.20;11.23;;;8.50;99.90;;;;;;5103994;27;20460;-66
2022/11/05 07:13:35;;;;;;;35.37;11.10;;;8.50;99.90;;;;;;5092376;28;20546;-66
2022/11/05 07:16:02;;;;;;;34.83;11.10;;;8.50;99.90;;;;;;5092106;28;20451;-66
2022/11/05 07:18:29;;;;;;;18.20;9.43;;;8.40;99.90;;;;;;5104193;28;20823;-66
2022/11/05 07:20:55;;;;;;;20.53;10.20;;;8.40;99.90;;;;;;5112235;28;20478;-66
2022/11/05 07:23:23;;;;;;;21.13;9.80;;;8.40;99.90;;;;;;5102856;28;20503;-66
2022/11/05 07:25:50;;;;;;;19.50;9.73;;;8.30;99.90;;;;;;5091858;28;20456;-66
2022/11/05 07:28:17;;;;;;;20.60;9.63;;;8.30;99.90;;;;;;5101443;28;20823;-66
2022/11/05 07:30:44;;;;;;;21.00;9.50;;;8.30;99.90;;;;;;5105622;28;20509;-66
2022/11/05 07:33:10;;;;;;;34.27;10.83;;;8.30;99.90;;;;;;5091743;28;20462;-66
2022/11/05 07:35:37;;;;;;;32.70;10.57;;;8.30;99.90;;;;;;5090642;28;20479;-66
2022/11/05 07:38:04;;;;;;;20.50;9.83;;;8.30;99.90;;;;;;5096273;28;20450;-66
2022/11/05 07:40:32;;;;;;;25.20;9.63;;;8.30;99.90;;;;;;5091498;28;20451;-67
2022/11/05 07:42:59;;;;;;;16.07;9.30;;;8.30;99.90;;;;;;5091414;28;20469;-66
2022/11/05 07:45:28;;;;;;;26.43;10.47;;;8.30;99.90;;;;;;5089641;28;20451;-66
2022/11/05 07:47:56;;;;;;;23.60;10.63;;;8.40;99.90;;;;;;5087632;28;20452;-65
2022/11/05 07:50:25;;;;;;;19.97;10.03;;;8.40;99.90;;;;;;5090712;28;20814;-65
2022/11/05 07:52:52;;;;;;;24.07;10.80;;;8.40;99.90;;;;;;5090832;28;20462;-64
2022/11/05 07:55:19;;;;;;;22.63;10.07;;;8.40;99.90;;;;;;5091055;28;20455;-64
2022/11/05 07:57:49;;;;;;;26.60;11.47;;;8.40;99.90;;;;;;5095810;28;20446;-64
2022/11/05 08:00:18;;;;;;;21.23;11.60;;;8.40;99.90;;;;;;5101991;28;20858;-64
2022/11/05 08:02:56;;;;;;;24.73;11.40;;;8.40;99.90;;;;;;5090514;28;20489;-66
2022/11/05 08:05:22;;;;;;;21.23;10.67;;;8.60;99.90;;;;;;5090610;28;20979;-65
2022/11/05 08:07:49;;;;;;;24.40;10.60;;;9.10;99.90;;;;;;5095078;28;20447;-66
2022/11/05 08:10:16;;;;;;;23.03;11.17;;;9.80;99.90;;;;;;5095097;28;20455;-66
2022/11/05 08:12:42;;;;;;;20.17;9.50;;;10.50;99.90;;;;;;5090031;28;20520;-66
2022/11/05 08:15:11;;;;;;;17.00;9.80;;;11.20;99.90;;;;;;5098888;28;20450;-66
2022/11/05 08:17:37;;;;;;;20.80;9.30;;;11.70;99.90;;;;;;5108192;28;20446;-66
2022/11/05 08:20:05;;;;;;;22.00;9.47;;;12.20;99.90;;;;;;5112041;28;20453;-66
2022/11/05 08:22:32;;;;;;;15.37;8.70;;;12.60;99.90;;;;;;5111588;28;20469;-66
2022/11/05 08:24:58;;;;;;;16.07;8.47;;;13.00;99.90;;;;;;5095875;28;20537;-67
2022/11/05 08:27:25;;;;;;;15.50;7.90;;;13.10;99.90;;;;;;5090452;28;20453;-66
2022/11/05 08:29:52;;;;;;;24.43;9.37;;;13.30;99.90;;;;;;5092595;28;20447;-66
2022/11/05 08:32:20;;;;;;;16.23;9.93;;;13.50;99.90;;;;;;5089697;28;20468;-67
2022/11/05 08:34:46;;;;;;;16.30;10.27;;;13.40;99.90;;;;;;5090960;28;20443;-66
2022/11/05 08:37:13;;;;;;;17.67;8.90;;;13.10;99.90;;;;;;5090436;28;20447;-73
2022/11/05 08:39:40;;;;;;;21.33;9.53;;;12.60;99.90;;;;;;5089381;28;20443;-66
2022/11/05 08:42:06;;;;;;;19.80;10.00;;;12.20;99.90;;;;;;5089896;28;21188;-66
2022/11/05 08:44:33;;;;;;;20.30;11.67;;;12.00;99.90;;;;;;5089310;28;20487;-66
2022/11/05 08:47:00;;;;;;;20.27;10.77;;;11.70;99.90;;;;;;5089759;28;20461;-67
2022/11/05 08:49:28;;;;;;;22.20;11.00;;;11.60;99.90;;;;;;5089715;28;21295;-66
2022/11/05 08:51:54;;;;;;;26.00;11.83;;;11.50;99.90;;;;;;5090059;28;20851;-66
2022/11/05 08:54:21;;;;;;;29.10;11.37;;;11.50;99.90;;;;;;5089696;28;20535;-67
2022/11/05 08:56:48;;;;;;;19.20;10.77;;;11.50;99.90;;;;;;5090370;28;20948;-66
2022/11/05 08:59:15;;;;;;;15.47;10.27;;;11.60;99.90;;;;;;5090729;28;20462;-66
2022/11/05 09:01:41;;;;;;;22.13;11.30;;;11.90;99.90;;;;;;5089424;28;20473;-66
2022/11/05 09:04:08;;;;;;;22.03;9.77;;;12.30;99.90;;;;;;5089423;28;20573;-66
2022/11/05 09:06:37;;;;;;;18.93;9.50;;;12.40;99.90;;;;;;5087985;28;20461;-66
2022/11/05 09:09:04;;;;;;;22.67;10.33;;;12.30;99.90;;;;;;5090524;28;20462;-66
2022/11/05 09:11:30;;;;;;;22.10;10.73;;;12.30;99.90;;;;;;5089515;28;21149;-67
2022/11/05 09:13:57;;;;;;;20.93;10.53;;;12.20;99.90;;;;;;5090301;28;20458;-67
2022/11/05 09:16:25;;;;;;;21.40;11.20;;;12.20;99.90;;;;;;5089001;28;20459;-67
2022/11/05 09:18:53;;;;;;;20.20;11.43;;;12.50;99.90;;;;;;5089572;28;20451;-67
2022/11/05 09:21:20;;;;;;;16.87;9.47;;;12.90;99.90;;;;;;5093572;28;20459;-67
2022/11/05 09:23:49;;;;;;;15.93;9.33;;;13.50;99.90;;;;;;5093145;28;20486;-67
2022/11/05 09:26:16;;;;;;;15.50;9.53;;;13.90;99.90;;;;;;5093931;28;20456;-67
2022/11/05 09:28:43;;;;;;;14.70;8.67;;;14.10;99.90;;;;;;5093438;28;20454;-67
2022/11/05 09:31:11;;;;;;;19.00;8.70;;;14.40;99.90;;;;;;5092705;28;20547;-67
2022/11/05 09:33:39;;;;;;;19.23;10.10;;;14.70;99.90;;;;;;5092160;28;20463;-67
2022/11/05 09:36:06;;;;;;;15.70;9.87;;;14.90;99.90;;;;;;5093054;28;20448;-67
2022/11/05 09:38:34;;;;;;;17.47;8.80;;;15.20;99.90;;;;;;5097274;28;20456;-68
2022/11/05 09:41:06;;;;;;;12.90;8.13;;;15.10;99.90;;;;;;5093422;28;20490;-67
2022/11/05 09:43:37;;;;;;;16.00;8.90;;;14.90;99.90;;;;;;5092638;28;20471;-68
2022/11/05 09:46:10;;;;;;;15.93;8.23;;;15.00;99.90;;;;;;5094398;28;20978;-68
2022/11/05 09:48:38;;;;;;;17.03;7.83;;;15.10;99.90;;;;;;5092137;28;20451;-67
2022/11/05 09:51:06;;;;;;;16.53;7.90;;;15.00;99.90;;;;;;5092560;28;20520;-68
2022/11/05 09:53:40;;;;;;;13.73;8.33;;;14.90;99.90;;;;;;5092948;28;20498;-67
2022/11/05 09:56:19;;;;;;;13.50;8.60;;;14.80;99.90;;;;;;5093651;28;20901;-67
2022/11/05 09:58:49;;;;;;;14.83;7.83;;;14.60;99.90;;;;;;5091960;28;20542;-67
2022/11/05 10:01:21;;;;;;;10.70;6.97;;;14.40;99.90;;;;;;5092569;28;20459;-67
2022/11/05 10:03:51;;;;;;;11.63;6.90;;;14.40;99.90;;;;;;5086290;28;20979;-67
2022/11/05 10:06:21;;;;;;;11.20;6.43;;;14.50;99.90;;;;;;5089613;28;20454;-67
2022/11/05 10:08:52;;;;;;;14.10;6.82;;;14.60;99.90;;;;;;5085604;28;20445;-67
2022/11/05 10:11:24;;;;;;;15.67;7.60;;;14.70;99.90;;;;;;5092298;28;20689;-67
2022/11/05 10:13:55;;;;;;;10.50;8.00;;;14.90;99.90;;;;;;5088552;28;20470;-67
2022/11/05 10:16:26;;;;;;;14.98;7.55;;;15.10;99.90;;;;;;5091897;28;20443;-68
2022/11/05 10:18:56;;;;;;;13.13;7.97;;;14.80;99.90;;;;;;5090699;28;20208;-66
2022/11/05 10:21:23;;;;;;;13.83;7.50;;;14.10;99.90;;;;;;5090315;28;20454;-66
2022/11/05 10:23:51;;;;;;;13.83;7.47;;;14.10;99.90;;;;;;5090667;28;20478;-67
2022/11/05 10:26:23;;;;;;;14.50;7.73;;;14.30;99.90;;;;;;5091499;28;20942;-67
2022/11/05 10:28:51;;;;;;;18.03;7.63;;;14.40;99.90;;;;;;5085268;28;20460;-67
2022/11/05 10:31:22;;;;;;;10.97;7.07;;;14.20;99.90;;;;;;5092174;28;20943;-67
2022/11/05 10:33:51;;;;;;;12.90;7.23;;;14.40;99.90;;;;;;5092382;28;20467;-67
2022/11/05 10:36:22;;;;;;;13.90;7.60;;;14.40;99.90;;;;;;5092094;28;20466;-67
2022/11/05 10:38:49;;;;;;;10.67;6.80;;;14.60;99.90;;;;;;5091355;28;20444;-67
2022/11/05 10:41:42;;;;;;;9.70;6.37;;;15.10;99.90;;;;;;5089867;28;20459;-67
2022/11/05 10:44:24;;;;;;;13.30;6.07;;;15.50;99.90;;;;;;5091435;28;20483;-67
2022/11/05 10:47:07;;;;;;;9.30;6.37;;;15.60;99.90;;;;;;5090261;28;20452;-69
2022/11/05 10:49:45;;;;;;;11.10;6.67;;;15.20;99.90;;;;;;5091294;28;20483;-67
2022/11/05 10:52:21;;;;;;;13.83;6.77;;;14.60;99.90;;;;;;5091764;28;20498;-67
2022/11/05 10:54:49;;;;;;;11.30;6.17;;;13.90;99.90;;;;;;5091526;28;20513;-67
2022/11/05 10:57:34;;;;;;;11.37;7.17;;;13.40;99.90;;;;;;5091413;28;20459;-67
2022/11/05 11:00:27;;;;;;;9.40;6.73;;;13.20;99.90;;;;;;5091821;28;20957;-66
2022/11/05 11:02:56;;;;;;;10.03;6.50;;;13.50;99.90;;;;;;5084841;28;20541;-66
2022/11/05 11:05:29;;;;;;;11.87;6.20;;;14.10;99.90;;;;;;5091538;28;20479;-67
2022/11/05 11:08:00;;;;;;;10.07;6.40;;;14.70;99.90;;;;;;5090020;28;20824;-67
2022/11/05 11:10:28;;;;;;;9.07;5.90;;;15.00;99.90;;;;;;5091030;28;20447;-67
2022/11/05 11:12:57;;;;;;;8.83;5.77;;;15.30;99.90;;;;;;5091524;28;20471;-66
2022/11/05 11:15:27;;;;;;;16.37;6.67;;;15.00;99.90;;;;;;5090631;28;20452;-74
2022/11/05 11:17:54;;;;;;;14.63;6.77;;;14.80;99.90;;;;;;5091521;28;20534;-74
2022/11/05 11:20:25;;;;;;;8.57;5.80;;;14.60;99.90;;;;;;5090708;28;20447;-73
2022/11/05 11:23:03;;;;;;;9.00;5.80;;;14.60;99.90;;;;;;5091192;28;20463;-73
2022/11/05 11:25:37;;;;;;;5.90;5.20;;;15.00;99.90;;;;;;5090684;28;20488;-74
2022/11/05 11:28:07;;;;;;;7.20;5.60;;;15.20;99.90;;;;;;5091169;28;20480;-74
2022/11/05 11:30:34;;;;;;;9.83;5.53;;;15.40;99.90;;;;;;5089377;28;20448;-73
2022/11/05 11:33:06;;;;;;;11.13;6.77;;;15.90;99.90;;;;;;5091000;28;20467;-73
2022/11/05 11:35:37;;;;;;;10.65;5.70;;;16.40;99.90;;;;;;5090578;28;20478;-68
2022/11/05 11:38:06;;;;;;;8.00;5.67;;;16.90;99.90;;;;;;5092482;28;20194;-68
2022/11/05 11:40:35;;;;;;;6.83;4.70;;;17.10;99.90;;;;;;5090866;28;20430;-68
2022/11/05 11:43:06;;;;;;;6.60;4.60;;;17.50;99.90;;;;;;5090915;28;20472;-68
2022/11/05 11:45:37;;;;;;;7.05;4.80;;;17.80;99.90;;;;;;5092043;28;20635;-67
2022/11/05 11:48:06;;;;;;;15.93;6.50;;;17.70;99.90;;;;;;5076881;28;20440;-67
2022/11/05 11:50:37;;;;;;;13.40;5.70;;;17.30;99.90;;;;;;5090517;28;20197;-67
2022/11/05 11:53:28;;;;;;;7.20;5.40;;;17.40;99.90;;;;;;5096441;28;20541;-67
2022/11/05 11:56:01;;;;;;;7.83;4.80;;;17.60;99.90;;;;;;5084208;28;20430;-67
2022/11/05 11:58:42;;;;;;;9.33;4.60;;;17.70;99.90;;;;;;5090811;28;20471;-67
2022/11/05 12:01:46;;;;;;;7.40;4.93;;;17.50;99.90;;;;;;5085905;28;20454;-67
2022/11/05 12:04:37;;;;;;;7.10;4.30;;;17.50;99.90;;;;;;5058704;28;20417;-67
2022/11/05 12:07:19;;;;;;;9.70;3.80;;;17.80;99.90;;;;;;5094610;28;20421;-67
2022/11/05 12:10:00;;;;;;;6.13;3.33;;;18.00;99.90;;;;;;5089659;28;20475;-76
2022/11/05 12:12:36;;;;;;;4.17;3.10;;;18.30;99.90;;;;;;5090124;28;20506;-75
2022/11/05 12:15:24;;;;;;;5.20;3.70;;;18.10;99.90;;;;;;5088155;28;20418;-76
2022/11/05 12:17:56;;;;;;;12.53;4.50;;;17.80;99.90;;;;;;5089242;28;20505;-77
2022/11/05 12:20:46;;;;;;;4.50;3.60;;;17.80;99.90;;;;;;5090555;28;20433;-78
2022/11/05 12:23:37;;;;;;;6.57;2.97;;;17.80;99.90;;;;;;5086500;28;20450;-79
2022/11/05 12:26:17;;;;;;;7.10;3.70;;;17.00;99.90;;;;;;5088581;28;20536;-79
2022/11/05 12:28:59;;;;;;;5.53;2.90;;;16.70;99.90;;;;;;5091043;28;20447;-77
2022/11/05 12:31:37;;;;;;;12.80;3.73;;;16.30;99.90;;;;;;5090084;28;20482;-82
2022/11/05 12:34:16;;;;;;;6.47;2.97;;;16.10;99.90;;;;;;5084540;28;20451;-77
2022/11/05 12:37:03;;;;;;;9.57;3.90;;;16.20;99.90;;;;;;5089761;28;20447;-77
2022/11/05 12:39:43;;;;;;;5.33;3.40;;;16.60;99.90;;;;;;5089919;28;20501;-77
2022/11/05 12:42:23;;;;;;;9.80;3.33;;;17.40;99.90;;;;;;5087155;28;20454;-76
2022/11/05 12:45:00;;;;;;;5.50;2.93;;;17.60;99.90;;;;;;5091770;28;20827;-77
2022/11/05 12:47:44;;;;;;;4.27;3.00;;;17.90;99.90;;;;;;5090442;28;20447;-77
2022/11/05 12:50:17;;;;;;;9.13;3.37;;;18.30;99.90;;;;;;5086134;28;20426;-77
2022/11/05 12:53:09;;;;;;;5.83;2.90;;;18.60;99.90;;;;;;5089770;28;20445;-74
2022/11/05 12:55:38;;;;;;;7.93;2.87;;;18.60;99.90;;;;;;5092707;28;20430;-75
2022/11/05 12:58:11;;;;;;;6.60;2.30;;;18.60;99.90;;;;;;5094496;28;20473;-76
2022/11/05 13:00:42;;;;;;;3.30;2.50;;;18.40;99.90;;;;;;5094305;28;20957;-76
2022/11/05 13:03:24;;;;;;;4.57;2.80;;;18.30;99.90;;;;;;5090842;28;20503;-76
2022/11/05 13:05:54;;;;;;;8.47;3.27;;;18.00;99.90;;;;;;5091466;28;20476;-76
2022/11/05 13:08:25;;;;;;;3.20;2.60;;;17.80;99.90;;;;;;5093163;28;21064;-76
2022/11/05 13:10:55;;;;;;;4.93;2.40;;;17.50;99.90;;;;;;5092930;28;20443;-75
2022/11/05 13:13:27;;;;;;;4.60;2.23;;;17.10;99.90;;;;;;5097716;28;20484;-74
2022/11/05 13:15:57;;;;;;;4.37;2.43;;;16.40;99.90;;;;;;5093441;28;20418;-75
2022/11/05 13:18:28;;;;;;;4.17;2.80;;;16.00;99.90;;;;;;5094399;28;20451;-74
2022/11/05 13:20:58;;;;;;;5.40;2.70;;;15.70;99.90;;;;;;5092425;28;20505;-74
2022/11/05 13:23:31;;;;;;;3.77;2.60;;;15.50;99.90;;;;;;5092940;28;20475;-74
2022/11/05 13:26:02;;;;;;;4.47;2.53;;;15.40;99.90;;;;;;5093645;28;20460;-69
2022/11/05 13:28:38;;;;;;;3.70;2.10;;;15.10;99.90;;;;;;5093435;28;20447;-69
2022/11/05 13:31:10;;;;;;;4.63;2.20;;;14.70;99.90;;;;;;5093502;28;20477;-68
2022/11/05 13:33:42;;;;;;;3.60;2.13;;;14.20;99.90;;;;;;5092758;28;20805;-68
2022/11/05 13:39:05;;;;;;;4.60;2.10;;;13.30;99.90;;;;;;5096319;28;20847;-68